Time;durP1;ratioP1;P1;durP2;ratioP2;P2;SDS_P1;SDS_P2;PMS_P1;PMS_P2;Temp;Humidity;BMP_temperature;BMP_pressure;BME280_temperature;BME280_humidity;BME280_pressure;Samples;Min_cycle;Max_cycle;Signal;HPM_P1;HPM_P2
2022/06/13 00:01:55;;;;;;;2.47;1.42;;;23.70;71.20;;;;;;5052426;28;20116;-60
2022/06/13 00:04:21;;;;;;;3.97;1.60;;;24.10;88.20;;;;;;5052462;28;20073;-60
2022/06/13 00:06:47;;;;;;;3.40;1.38;;;;;;;;;;5052574;28;20025;-61
2022/06/13 00:09:13;;;;;;;5.43;1.70;;;23.90;88.10;;;;;;5052524;28;20036;-61
2022/06/13 00:11:39;;;;;;;4.07;1.80;;;24.20;88.10;;;;;;5052423;28;20376;-60
2022/06/13 00:14:05;;;;;;;3.38;1.88;;;23.50;87.80;;;;;;5052295;28;20104;-60
2022/06/13 00:16:31;;;;;;;6.00;2.10;;;24.00;87.70;;;;;;5052637;28;20361;-61
2022/06/13 00:18:57;;;;;;;4.38;1.65;;;23.80;73.20;;;;;;5052267;28;20083;-60
2022/06/13 00:21:33;;;;;;;3.00;1.55;;;23.70;55.30;;;;;;5052596;28;20013;-61
2022/06/13 00:24:01;;;;;;;5.35;1.50;;;24.20;72.00;;;;;;5052271;28;20108;-61
2022/06/13 00:26:29;;;;;;;3.15;1.60;;;24.00;88.10;;;;;;5052543;28;20021;-61
2022/06/13 00:28:55;;;;;;;4.07;1.75;;;24.10;88.20;;;;;;5051472;28;20033;-61
2022/06/13 00:31:21;;;;;;;4.28;1.58;;;23.80;87.80;;;;;;5052240;28;20029;-61
2022/06/13 00:33:47;;;;;;;3.97;1.60;;;24.00;88.20;;;;;;5052133;28;20530;-60
2022/06/13 00:36:14;;;;;;;4.28;1.65;;;24.00;88.10;;;;;;5052164;28;20024;-61
2022/06/13 00:38:39;;;;;;;4.97;1.90;;;23.90;88.30;;;;;;5052296;28;20586;-61
2022/06/13 00:41:11;;;;;;;2.03;1.38;;;23.70;88.00;;;;;;5052056;28;20081;-61
2022/06/13 00:43:38;;;;;;;4.88;1.77;;;24.00;53.70;;;;;;5052123;28;20371;-61
2022/06/13 00:46:22;;;;;;;5.32;1.90;;;23.80;88.20;;;;;;5052139;28;20123;-61
2022/06/13 00:48:53;;;;;;;2.38;1.48;;;23.90;88.20;;;;;;5052002;28;20083;-61
2022/06/13 00:51:19;;;;;;;4.43;1.60;;;24.00;88.10;;;;;;5052078;28;20391;-61
2022/06/13 00:53:46;;;;;;;5.50;1.88;;;24.10;88.10;;;;;;5051994;28;20480;-61
2022/06/13 00:56:16;;;;;;;5.05;1.80;;;24.20;88.40;;;;;;5051946;28;20036;-61
2022/06/13 00:58:53;;;;;;;3.17;1.80;;;24.20;88.70;;;;;;5051861;28;20037;-61
2022/06/13 01:01:21;;;;;;;2.95;1.50;;;24.00;83.00;;;;;;5051843;28;20535;-61
2022/06/13 01:03:48;;;;;;;2.67;1.35;;;24.20;69.40;;;;;;5051764;28;20079;-61
2022/06/13 01:06:14;;;;;;;3.75;1.80;;;23.60;88.00;;;;;;5052121;28;20204;-61
2022/06/13 01:08:40;;;;;;;3.58;1.80;;;23.80;53.80;;;;;;5051917;28;20030;-61
2022/06/13 01:11:18;;;;;;;4.40;1.50;;;24.00;53.20;;;;;;5052080;28;20021;-61
2022/06/13 01:14:22;;;;;;;3.17;1.67;;;24.10;88.60;;;;;;5052152;28;20627;-61
2022/06/13 01:17:11;;;;;;;2.88;1.40;;;23.50;88.60;;;;;;5051754;28;20135;-61
2022/06/13 01:20:05;;;;;;;4.05;1.70;;;23.90;88.80;;;;;;5051815;28;20476;-61
2022/06/13 01:22:59;;;;;;;3.85;2.05;;;23.90;69.20;;;;;;5051782;28;20040;-60
2022/06/13 01:25:25;;;;;;;3.08;1.50;;;23.80;88.60;;;;;;5051987;28;20036;-60
2022/06/13 01:28:18;;;;;;;5.50;1.67;;;23.70;88.40;;;;;;5051685;28;20025;-60
2022/06/13 01:30:43;;;;;;;4.00;1.83;;;23.90;88.70;;;;;;5051694;28;20029;-60
2022/06/13 01:33:26;;;;;;;4.65;1.40;;;24.00;89.00;;;;;;5051620;28;20078;-60
2022/06/13 01:36:13;;;;;;;4.03;1.63;;;23.40;88.70;;;;;;5051691;28;20036;-60
2022/06/13 01:38:58;;;;;;;5.47;2.13;;;23.60;88.90;;;;;;5051533;28;20037;-60
2022/06/13 01:41:43;;;;;;;5.10;1.77;;;23.60;88.60;;;;;;5055001;28;20032;-60
2022/06/13 01:44:34;;;;;;;3.70;1.70;;;23.60;88.70;;;;;;5055258;28;20105;-60
2022/06/13 01:47:08;;;;;;;3.20;1.42;;;23.80;54.30;;;;;;5044324;28;20087;-60
2022/06/13 01:50:05;;;;;;;4.47;1.85;;;23.40;57.10;;;;;;5055125;28;20452;-61
2022/06/13 01:52:30;;;;;;;4.13;1.40;;;;;;;;;;5055050;28;20029;-61
2022/06/13 01:55:04;;;;;;;4.88;1.63;;;24.00;53.70;;;;;;5054982;28;20095;-60
2022/06/13 01:58:02;;;;;;;4.82;1.80;;;23.80;88.90;;;;;;5055211;28;20364;-60
2022/06/13 02:00:30;;;;;;;5.40;1.92;;;23.70;89.20;;;;;;5054909;28;20477;-60
2022/06/13 02:02:58;;;;;;;3.92;1.70;;;23.90;89.50;;;;;;5055056;28;20064;-60
2022/06/13 02:05:36;;;;;;;5.15;1.85;;;23.90;82.00;;;;;;5054621;28;20527;-60
2022/06/13 02:08:14;;;;;;;4.03;1.75;;;23.90;89.30;;;;;;5055061;28;20037;-60
2022/06/13 02:11:04;;;;;;;2.70;1.75;;;23.60;89.10;;;;;;5054782;28;20112;-60
2022/06/13 02:13:43;;;;;;;4.80;1.55;;;24.00;89.40;;;;;;5054955;28;20458;-60
2022/06/13 02:16:14;;;;;;;5.32;1.65;;;23.60;61.80;;;;;;5054939;28;20021;-61
2022/06/13 02:19:04;;;;;;;3.25;1.48;;;23.70;89.20;;;;;;5054497;28;20484;-61
2022/06/13 02:21:47;;;;;;;3.10;1.50;;;23.70;54.60;;;;;;5053597;28;20091;-60
2022/06/13 02:24:17;;;;;;;3.67;1.75;;;23.40;78.10;;;;;;5054399;28;20021;-60
2022/06/13 02:26:45;;;;;;;3.92;1.70;;;24.00;58.30;;;;;;5054137;28;20032;-61
2022/06/13 02:29:21;;;;;;;3.50;1.63;;;23.50;89.40;;;;;;5054367;28;20025;-61
2022/06/13 02:32:01;;;;;;;3.35;1.75;;;23.70;61.90;;;;;;5054220;28;20037;-61
2022/06/13 02:34:34;;;;;;;5.43;2.03;;;23.70;54.70;;;;;;5054026;28;20060;-61
2022/06/13 02:37:09;;;;;;;7.82;2.03;;;23.90;90.30;;;;;;5054005;28;20180;-62
2022/06/13 02:39:52;;;;;;;5.72;2.05;;;23.70;90.00;;;;;;5053975;28;20032;-62
2022/06/13 02:42:31;;;;;;;5.00;1.83;;;23.90;89.90;;;;;;5054063;28;20033;-63
2022/06/13 02:45:06;;;;;;;5.47;1.83;;;23.50;89.60;;;;;;5054306;28;20025;-63
2022/06/13 02:47:45;;;;;;;4.32;1.90;;;23.50;90.00;;;;;;5053976;28;20549;-63
2022/06/13 02:50:19;;;;;;;3.10;1.40;;;23.80;90.10;;;;;;5054303;28;20024;-63
2022/06/13 02:52:48;;;;;;;6.15;1.40;;;23.90;90.10;;;;;;5053276;28;20053;-62
2022/06/13 02:55:14;;;;;;;6.13;1.80;;;23.80;90.00;;;;;;5053874;28;20055;-63
2022/06/13 02:58:12;;;;;;;4.55;1.60;;;23.70;54.30;;;;;;5053714;28;20068;-62
2022/06/13 03:01:05;;;;;;;6.90;2.10;;;23.60;90.10;;;;;;5053804;28;20172;-63
2022/06/13 03:03:42;;;;;;;3.35;1.77;;;23.70;72.20;;;;;;5053440;28;20029;-63
2022/06/13 03:06:17;;;;;;;5.10;2.05;;;23.80;54.30;;;;;;5053715;28;20025;-63
2022/06/13 03:08:48;;;;;;;3.25;1.85;;;23.60;74.60;;;;;;5053570;28;20555;-63
2022/06/13 03:11:32;;;;;;;4.57;1.77;;;23.60;54.20;;;;;;5053842;28;20031;-63
2022/06/13 03:14:35;;;;;;;2.17;1.20;;;23.80;89.70;;;;;;5053897;28;20443;-63
2022/06/13 03:17:08;;;;;;;4.80;2.00;;;23.70;89.80;;;;;;5053327;28;20035;-63
2022/06/13 03:19:42;;;;;;;4.10;1.92;;;23.80;89.70;;;;;;5053398;28;20112;-63
2022/06/13 03:22:34;;;;;;;3.45;1.33;;;23.80;89.90;;;;;;5053452;28;20488;-63
2022/06/13 03:25:14;;;;;;;2.63;1.42;;;23.20;89.70;;;;;;5053280;28;20044;-63
2022/06/13 03:27:51;;;;;;;4.10;1.80;;;23.50;90.00;;;;;;5053288;28;20033;-63
2022/06/13 03:30:22;;;;;;;4.80;1.70;;;23.60;54.10;;;;;;5053209;28;20024;-63
2022/06/13 03:35:50;;;;;;;7.90;2.10;;;23.80;90.00;;;;;;5053297;28;20063;-63
2022/06/13 03:38:21;;;;;;;5.13;1.88;;;23.70;89.80;;;;;;5052942;28;20088;-63
2022/06/13 03:40:52;;;;;;;4.25;1.85;;;23.60;74.60;;;;;;5053222;28;20025;-63
2022/06/13 03:43:24;;;;;;;3.60;1.80;;;23.40;89.60;;;;;;5052956;28;20025;-63
2022/06/13 03:45:56;;;;;;;2.75;1.85;;;23.50;89.60;;;;;;5052877;28;20013;-63
2022/06/13 03:48:27;;;;;;;5.57;2.10;;;23.40;89.30;;;;;;5052937;28;20455;-60
2022/06/13 03:51:29;;;;;;;5.32;2.03;;;23.70;89.90;;;;;;5052920;28;20103;-60
2022/06/13 03:54:12;;;;;;;6.93;1.85;;;23.80;89.70;;;;;;5035241;28;20142;-61
2022/06/13 03:56:56;;;;;;;2.92;1.35;;;23.90;89.80;;;;;;5052701;28;20025;-61
2022/06/13 03:59:38;;;;;;;5.40;1.60;;;23.50;53.80;;;;;;5052702;28;20065;-61
2022/06/13 04:08:47;;;;;;;4.85;1.73;;;23.50;89.80;;;;;;5072872;28;20036;-59
2022/06/13 04:11:20;;;;;;;3.15;1.55;;;23.50;89.60;;;;;;5072552;28;20032;-59
2022/06/13 04:14:04;;;;;;;4.43;1.90;;;23.80;90.20;;;;;;5072584;28;20065;-59
2022/06/13 04:16:54;;;;;;;3.65;1.60;;;23.10;90.00;;;;;;5072549;28;20108;-59
2022/06/13 04:19:34;;;;;;;3.03;1.58;;;23.40;90.00;;;;;;5072631;28;20028;-62
2022/06/13 04:22:41;;;;;;;6.40;1.90;;;23.30;90.10;;;;;;5072426;28;20082;-62
2022/06/13 04:25:37;;;;;;;4.90;1.70;;;23.20;90.00;;;;;;5071846;28;20045;-62
2022/06/13 04:28:34;;;;;;;4.22;1.55;;;23.30;73.30;;;;;;5072219;28;20028;-62
2022/06/13 04:31:02;;;;;;;3.88;1.23;;;23.80;89.80;;;;;;5072310;28;20024;-62
2022/06/13 04:33:45;;;;;;;4.25;1.50;;;23.20;89.60;;;;;;5072227;28;20025;-62
2022/06/13 04:36:13;;;;;;;4.90;1.98;;;23.50;55.00;;;;;;5072322;28;20112;-59
2022/06/13 04:38:42;;;;;;;3.55;1.60;;;23.80;66.40;;;;;;5072216;28;20475;-62
2022/06/13 04:41:09;;;;;;;4.90;1.52;;;23.40;89.00;;;;;;5072184;28;20024;-62
2022/06/13 04:43:45;;;;;;;4.10;1.60;;;23.10;73.80;;;;;;5072174;28;20531;-62
2022/06/13 04:46:20;;;;;;;3.30;1.35;;;23.30;88.10;;;;;;5072219;28;20060;-62
2022/06/13 04:48:51;;;;;;;4.25;1.50;;;23.40;85.40;;;;;;5072174;28;20017;-62
2022/06/13 04:51:20;;;;;;;3.13;1.45;;;23.30;54.40;;;;;;5072166;28;20112;-62
2022/06/13 04:54:04;;;;;;;3.58;1.25;;;23.40;53.60;;;;;;5072375;28;20074;-62
2022/06/13 04:56:31;;;;;;;2.80;1.58;;;23.40;54.10;;;;;;5072165;28;20127;-59
2022/06/13 04:58:59;;;;;;;4.28;1.40;;;23.40;54.40;;;;;;5071969;28;20458;-59
2022/06/13 05:01:31;;;;;;;3.25;1.60;;;23.70;65.70;;;;;;5073745;28;20475;-59
2022/06/13 05:03:58;;;;;;;4.20;1.42;;;23.40;54.50;;;;;;5092002;28;20075;-59
2022/06/13 05:06:36;;;;;;;3.55;1.58;;;23.40;89.00;;;;;;5092092;28;20036;-59
2022/06/13 05:09:11;;;;;;;3.30;1.45;;;23.40;89.20;;;;;;5092177;28;20028;-59
2022/06/13 05:11:53;;;;;;;2.85;1.40;;;23.40;79.20;;;;;;5092074;28;20020;-59
2022/06/13 05:14:30;;;;;;;3.78;1.55;;;23.40;53.60;;;;;;5092447;28;20110;-62
2022/06/13 05:17:13;;;;;;;2.30;1.05;;;23.10;89.10;;;;;;5095906;28;20032;-62
2022/06/13 05:20:22;;;;;;;2.78;1.13;;;23.40;54.60;;;;;;5095979;28;20036;-62
2022/06/13 05:22:48;;;;;;;2.50;1.13;;;23.20;89.40;;;;;;4993927;28;20062;-62
2022/06/13 05:25:48;;;;;;;3.75;1.50;;;23.20;89.20;;;;;;4994001;28;20062;-62
2022/06/13 05:28:20;;;;;;;3.28;1.45;;;23.20;89.20;;;;;;5032196;28;20121;-62
2022/06/13 05:30:49;;;;;;;3.40;1.40;;;23.10;89.30;;;;;;5096050;28;20024;-62
2022/06/13 05:33:18;;;;;;;2.35;1.13;;;23.50;68.70;;;;;;5095663;28;20047;-59
2022/06/13 05:35:45;;;;;;;2.70;1.25;;;23.40;89.30;;;;;;5095638;28;20056;-59
2022/06/13 05:38:17;;;;;;;3.17;1.45;;;23.40;70.60;;;;;;5095511;28;20096;-60
2022/06/13 05:40:43;;;;;;;5.57;1.60;;;;;;;;;;5095823;28;20030;-60
2022/06/13 05:43:10;;;;;;;7.03;1.85;;;23.50;70.00;;;;;;5095442;28;20028;-59
2022/06/13 05:45:38;;;;;;;4.70;1.48;;;23.30;89.50;;;;;;5095365;28;20107;-59
2022/06/13 05:48:05;;;;;;;2.78;0.93;;;23.50;89.60;;;;;;5095281;28;20034;-58
2022/06/13 05:50:33;;;;;;;6.05;1.33;;;;;;;;;;5095352;28;20051;-62
2022/06/13 05:52:59;;;;;;;7.55;1.50;;;22.90;88.70;;;;;;5095263;28;20063;-62
2022/06/13 05:55:25;;;;;;;3.65;1.52;;;;;;;;;;5095197;28;20481;-61
2022/06/13 05:57:51;;;;;;;9.35;1.27;;;;;;;;;;5095369;28;20454;-61
2022/06/13 06:00:22;;;;;;;7.55;1.42;;;23.40;54.50;;;;;;5095080;28;20059;-62
2022/06/13 06:02:48;;;;;;;4.25;1.38;;;;;;;;;;5094847;28;20040;-61
2022/06/13 06:05:14;;;;;;;3.35;1.05;;;23.50;89.40;;;;;;5094967;28;20024;-62
2022/06/13 06:07:41;;;;;;;4.90;1.48;;;23.50;89.40;;;;;;5095039;28;20097;-60
2022/06/13 06:10:08;;;;;;;2.60;1.08;;;23.10;89.40;;;;;;5094978;28;20383;-59
2022/06/13 06:12:34;;;;;;;2.55;1.40;;;23.40;54.50;;;;;;5094579;28;20070;-59
2022/06/13 06:15:00;;;;;;;3.90;1.65;;;23.40;89.50;;;;;;5094919;28;20055;-60
2022/06/13 06:17:25;;;;;;;6.63;1.23;;;23.30;88.90;;;;;;5094728;28;20036;-60
2022/06/13 06:19:52;;;;;;;3.65;1.58;;;;;;;;;;5094764;28;20075;-60
2022/06/13 06:22:17;;;;;;;4.13;1.20;;;23.50;88.70;;;;;;5094549;28;20115;-59
2022/06/13 06:24:43;;;;;;;6.20;1.48;;;23.60;62.50;;;;;;5094981;28;20103;-60
2022/06/13 06:27:13;;;;;;;2.78;1.00;;;23.50;54.20;;;;;;5093618;28;20020;-60
2022/06/13 06:29:39;;;;;;;3.50;1.23;;;23.70;63.80;;;;;;5094627;28;20017;-60
2022/06/13 06:32:05;;;;;;;4.88;1.02;;;22.80;83.40;;;;;;5094442;28;20039;-59
2022/06/13 06:34:31;;;;;;;5.63;1.30;;;;;;;;;;5094441;28;20048;-59
2022/06/13 06:36:57;;;;;;;3.67;1.05;;;;;;;;;;5094286;28;20028;-59
2022/06/13 06:39:23;;;;;;;6.95;1.23;;;23.30;61.60;;;;;;5094262;28;20036;-59
2022/06/13 06:41:49;;;;;;;3.92;1.23;;;;;;;;;;5094353;28;20061;-59
2022/06/13 06:44:15;;;;;;;3.38;1.13;;;;;;;;;;5094235;28;20032;-59
2022/06/13 06:46:41;;;;;;;4.35;1.20;;;;;;;;;;5094279;28;20020;-60
2022/06/13 06:49:07;;;;;;;3.50;0.98;;;;;;;;;;5094133;28;20025;-60
2022/06/13 06:51:34;;;;;;;2.75;1.02;;;23.70;76.80;;;;;;5094114;28;20092;-60
2022/06/13 07:02:12;;;;;;;1.88;1.10;;;22.90;88.90;;;;;;5093775;28;20051;-59
2022/06/13 07:04:38;;;;;;;3.28;0.98;;;23.10;89.20;;;;;;5093969;28;20024;-60
2022/06/13 07:07:04;;;;;;;4.25;1.00;;;;;;;;;;5093874;28;20112;-60
2022/06/13 07:09:30;;;;;;;3.28;1.00;;;23.40;89.30;;;;;;5093708;28;20036;-59
2022/06/13 07:11:56;;;;;;;3.58;0.80;;;23.70;87.80;;;;;;5093743;28;20028;-59
2022/06/13 07:14:23;;;;;;;4.50;1.17;;;23.60;89.00;;;;;;5093652;28;20020;-59
2022/06/13 07:16:49;;;;;;;4.00;1.02;;;;;;;;;;5093663;28;20409;-59
2022/06/13 07:19:15;;;;;;;5.45;1.35;;;;;;;;;;5093475;28;20111;-60
2022/06/13 07:21:41;;;;;;;3.80;1.08;;;;;;;;;;5093717;28;20116;-59
2022/06/13 07:24:07;;;;;;;5.35;1.10;;;23.40;74.00;;;;;;5093532;28;20531;-59
2022/06/13 07:26:33;;;;;;;3.85;0.80;;;;;;;;;;5093403;28;20024;-60
2022/06/13 07:28:59;;;;;;;4.80;1.00;;;;;;;;;;5093439;28;20073;-59
2022/06/13 07:31:37;;;;;;;3.10;1.23;;;23.60;53.60;;;;;;5093292;28;20111;-60
2022/06/13 07:34:04;;;;;;;2.40;0.85;;;23.40;77.80;;;;;;5093431;28;20058;-60
2022/06/13 07:36:30;;;;;;;3.78;1.02;;;23.30;88.20;;;;;;5093317;28;20036;-60
2022/06/13 07:38:55;;;;;;;3.15;0.95;;;23.40;88.60;;;;;;5093288;28;20470;-60
2022/06/13 07:41:24;;;;;;;3.67;0.98;;;23.30;69.60;;;;;;5093204;28;20115;-60
2022/06/13 07:43:52;;;;;;;2.47;0.82;;;23.70;88.40;;;;;;5093202;28;20028;-60
2022/06/13 07:46:23;;;;;;;3.17;0.90;;;23.50;88.10;;;;;;5093116;28;20111;-60
2022/06/13 07:48:49;;;;;;;3.80;1.00;;;23.40;88.00;;;;;;5093440;28;20550;-60
2022/06/13 07:51:15;;;;;;;3.22;0.90;;;23.40;68.40;;;;;;5093009;28;20028;-59
2022/06/13 07:53:41;;;;;;;2.70;1.00;;;;;;;;;;5092934;28;20031;-60
2022/06/13 07:56:07;;;;;;;2.70;0.70;;;23.30;56.90;;;;;;5092841;28;20485;-60
2022/06/13 07:58:37;;;;;;;2.47;0.70;;;23.50;52.60;;;;;;5092948;28;20100;-60
2022/06/13 08:01:03;;;;;;;;;;;23.50;54.10;;;;;;5093499;28;20052;-59
2022/06/13 08:03:31;;;;;;;2.65;0.85;;;23.20;78.00;;;;;;5092605;28;19915;-59
2022/06/13 08:05:58;;;;;;;1.85;0.93;;;23.50;53.50;;;;;;5092798;28;20258;-60
2022/06/13 08:08:24;;;;;;;4.28;1.27;;;23.70;85.90;;;;;;5093001;28;20027;-59
2022/06/13 08:10:52;;;;;;;2.80;0.80;;;23.50;53.30;;;;;;5092768;28;20029;-59
2022/06/13 08:13:20;;;;;;;2.83;0.80;;;23.50;53.50;;;;;;5092725;28;20027;-59
2022/06/13 08:15:47;;;;;;;2.10;0.93;;;23.40;87.70;;;;;;5092723;28;20032;-59
2022/06/13 08:18:13;;;;;;;2.40;0.80;;;23.60;87.70;;;;;;5092856;28;20455;-59
2022/06/13 08:20:40;;;;;;;2.78;0.80;;;23.50;53.30;;;;;;5092547;28;20099;-60
2022/06/13 08:23:08;;;;;;;2.97;0.88;;;23.40;87.40;;;;;;5092636;28;20030;-59
2022/06/13 08:25:36;;;;;;;1.80;0.65;;;23.60;87.40;;;;;;5092523;28;20085;-60
2022/06/13 08:28:03;;;;;;;2.33;0.70;;;23.50;88.00;;;;;;5093052;28;20020;-59
2022/06/13 08:30:46;;;;;;;2.13;0.60;;;23.30;68.70;;;;;;5092451;28;20028;-59
2022/06/13 08:33:12;;;;;;;2.70;0.77;;;23.80;87.60;;;;;;5092415;28;20024;-59
2022/06/13 08:35:38;;;;;;;3.70;0.98;;;23.40;87.20;;;;;;5092666;28;20023;-59
2022/06/13 08:38:04;;;;;;;2.10;0.93;;;23.80;87.40;;;;;;5092637;28;20042;-62
2022/06/13 08:40:46;;;;;;;2.20;0.90;;;23.40;87.00;;;;;;5092310;28;20103;-60
2022/06/13 08:43:40;;;;;;;2.15;0.90;;;23.40;76.50;;;;;;5092244;28;20024;-60
2022/06/13 08:46:33;;;;;;;2.17;0.95;;;23.60;87.60;;;;;;5092271;28;20382;-60
2022/06/13 08:49:20;;;;;;;1.48;0.80;;;23.60;53.30;;;;;;5092302;28;20062;-60
2022/06/13 08:51:49;;;;;;;5.20;1.00;;;23.50;88.30;;;;;;5096686;28;20050;-60
2022/06/13 08:54:21;;;;;;;2.90;0.70;;;23.50;53.50;;;;;;5096483;28;20020;-59
2022/06/13 08:56:49;;;;;;;2.95;0.80;;;23.80;68.80;;;;;;5096445;28;20110;-59
2022/06/13 08:59:54;;;;;;;1.67;0.70;;;23.90;88.10;;;;;;5096344;28;20036;-59
2022/06/13 09:02:29;;;;;;;4.97;1.13;;;23.60;88.20;;;;;;5096051;28;20571;-59
2022/06/13 09:04:59;;;;;;;2.95;0.60;;;23.60;88.00;;;;;;5096203;28;20536;-59
2022/06/13 09:07:29;;;;;;;3.28;0.80;;;23.70;66.10;;;;;;5096239;28;20445;-59
2022/06/13 09:09:55;;;;;;;2.08;0.57;;;;;;;;;;5096481;28;20031;-59
2022/06/13 09:12:32;;;;;;;3.13;0.90;;;23.90;67.70;;;;;;5096132;28;20028;-59
2022/06/13 09:15:16;;;;;;;3.70;0.70;;;23.30;87.20;;;;;;5096154;28;20104;-59
2022/06/13 09:18:05;;;;;;;5.57;1.08;;;24.10;88.00;;;;;;5095967;28;20547;-59
2022/06/13 09:21:07;;;;;;;2.00;0.70;;;23.80;51.80;;;;;;5095949;28;20028;-59
2022/06/13 09:24:10;;;;;;;1.60;0.75;;;24.00;56.90;;;;;;5095877;28;20078;-59
2022/06/13 09:26:46;;;;;;;3.22;0.70;;;23.70;87.60;;;;;;5095883;28;20077;-58
2022/06/13 09:29:28;;;;;;;1.98;0.77;;;23.60;87.40;;;;;;5095814;28;20024;-59
2022/06/13 09:32:08;;;;;;;2.70;0.73;;;23.90;87.20;;;;;;5095709;28;20120;-59
2022/06/13 09:34:42;;;;;;;3.70;0.87;;;24.10;87.30;;;;;;5095795;28;20027;-60
2022/06/13 09:37:12;;;;;;;2.35;0.68;;;24.10;87.40;;;;;;5095492;28;20107;-60
2022/06/13 09:39:38;;;;;;;1.65;0.55;;;23.80;77.40;;;;;;5095676;28;20024;-60
2022/06/13 09:42:14;;;;;;;2.13;0.55;;;24.00;87.00;;;;;;5095742;28;20013;-59
2022/06/13 09:45:02;;;;;;;11.13;1.20;;;24.20;86.80;;;;;;5095496;28;20064;-60
2022/06/13 09:47:51;;;;;;;1.52;0.90;;;24.00;50.90;;;;;;5095583;28;20031;-60
2022/06/13 09:50:26;;;;;;;2.70;0.82;;;23.80;86.60;;;;;;5095321;28;20081;-60
2022/06/13 09:53:11;;;;;;;2.88;0.73;;;23.90;86.60;;;;;;5095258;28;20424;-60
2022/06/13 09:55:58;;;;;;;3.42;0.77;;;24.00;50.80;;;;;;5095215;28;20028;-59
2022/06/13 09:58:31;;;;;;;2.22;0.70;;;24.10;86.80;;;;;;5095065;28;20123;-60
2022/06/13 10:01:07;;;;;;;1.80;0.57;;;24.20;86.50;;;;;;5094907;28;20035;-60
2022/06/13 10:03:56;;;;;;;1.95;0.60;;;23.90;64.60;;;;;;5094782;28;20105;-60
2022/06/13 10:06:56;;;;;;;0.93;0.40;;;24.00;87.00;;;;;;5095145;28;20039;-60
2022/06/13 10:09:34;;;;;;;2.53;0.65;;;24.10;50.80;;;;;;5095403;28;20059;-60
2022/06/13 10:12:17;;;;;;;2.25;0.40;;;24.10;50.60;;;;;;5095228;28;20075;-59
2022/06/13 10:14:55;;;;;;;2.55;0.73;;;24.20;50.70;;;;;;5094788;28;20421;-59
2022/06/13 10:17:41;;;;;;;0.93;0.60;;;24.00;86.70;;;;;;5094625;28;20118;-60
2022/06/13 10:20:28;;;;;;;2.10;0.63;;;24.10;50.40;;;;;;5094614;28;20111;-60
2022/06/13 10:23:43;;;;;;;1.70;0.60;;;23.90;50.20;;;;;;5094662;28;20037;-60
2022/06/13 10:26:36;;;;;;;3.47;0.47;;;24.20;50.30;;;;;;5070541;28;20036;-62
2022/06/13 10:29:23;;;;;;;1.70;0.60;;;24.50;86.30;;;;;;5094822;28;20034;-60
2022/06/13 10:32:21;;;;;;;1.73;0.88;;;23.90;86.00;;;;;;5094490;28;20103;-60
2022/06/13 10:34:55;;;;;;;2.25;0.68;;;24.70;86.20;;;;;;5094427;28;20092;-59
2022/06/13 10:37:32;;;;;;;2.25;0.73;;;24.30;50.00;;;;;;5094242;28;20107;-60
2022/06/13 10:40:03;;;;;;;1.48;0.50;;;24.50;85.30;;;;;;5094244;28;20471;-59
2022/06/13 10:42:31;;;;;;;4.63;0.40;;;24.40;51.00;;;;;;5094242;28;20039;-59
2022/06/13 10:44:57;;;;;;;3.08;0.50;;;24.40;50.50;;;;;;5094239;28;20563;-60
2022/06/13 10:47:23;;;;;;;2.20;0.55;;;;;;;;;;5094351;28;20032;-60
2022/06/13 10:50:21;;;;;;;1.30;0.40;;;24.40;49.60;;;;;;5094232;28;20032;-60
2022/06/13 10:52:51;;;;;;;2.08;0.60;;;24.40;50.90;;;;;;5094259;28;20021;-60
2022/06/13 10:55:22;;;;;;;2.88;0.40;;;24.40;51.20;;;;;;5094130;28;20398;-60
2022/06/13 10:57:56;;;;;;;4.75;0.65;;;24.70;85.60;;;;;;5094067;28;20123;-62
2022/06/13 11:00:27;;;;;;;2.65;0.90;;;24.60;85.80;;;;;;5094055;28;20077;-60
2022/06/13 11:03:14;;;;;;;1.15;0.40;;;23.90;52.50;;;;;;5093625;28;20105;-60
2022/06/13 11:06:00;;;;;;;0.65;0.43;;;24.50;85.80;;;;;;5093808;28;20501;-65
2022/06/13 11:08:27;;;;;;;2.25;0.50;;;24.60;85.30;;;;;;5093687;28;20060;-60
2022/06/13 11:10:57;;;;;;;2.10;0.70;;;24.50;66.60;;;;;;5093923;28;20023;-60
2022/06/13 11:13:34;;;;;;;3.00;0.85;;;24.80;52.60;;;;;;5093315;28;20550;-60
2022/06/13 11:24:37;;;;;;;1.15;0.47;;;25.00;84.30;;;;;;5093496;28;20039;-60
2022/06/13 11:30:17;;;;;;;1.52;0.52;;;24.20;84.70;;;;;;5093641;28;20433;-60
2022/06/13 11:32:54;;;;;;;2.55;0.52;;;24.70;50.30;;;;;;5093306;28;20027;-60
2022/06/13 11:35:35;;;;;;;3.05;0.50;;;25.00;85.20;;;;;;5093195;28;20449;-60
2022/06/13 11:38:37;;;;;;;0.70;0.63;;;24.80;49.40;;;;;;5093094;28;20051;-60
2022/06/13 11:41:16;;;;;;;1.75;0.45;;;24.80;49.40;;;;;;4991270;28;20563;-60
2022/06/13 11:43:48;;;;;;;2.50;0.60;;;24.50;80.20;;;;;;5082226;28;20442;-60
2022/06/13 11:46:42;;;;;;;2.25;0.50;;;24.70;84.50;;;;;;5092990;28;20032;-60
2022/06/13 11:49:13;;;;;;;1.85;0.60;;;24.60;84.30;;;;;;5093119;28;20028;-58
2022/06/13 11:51:47;;;;;;;4.68;0.55;;;24.90;66.80;;;;;;5093082;28;20077;-60
2022/06/13 11:54:28;;;;;;;1.45;0.38;;;24.90;50.80;;;;;;5093004;28;20021;-61
2022/06/13 11:57:15;;;;;;;1.58;0.60;;;24.50;84.00;;;;;;5093313;28;20030;-61
2022/06/13 11:59:49;;;;;;;1.48;0.32;;;24.90;48.50;;;;;;5092983;28;20071;-60
2022/06/13 12:02:23;;;;;;;1.75;0.70;;;24.90;48.40;;;;;;5092668;28;20117;-61
2022/06/13 12:04:54;;;;;;;1.08;0.50;;;24.90;56.90;;;;;;5092894;28;20032;-61
2022/06/13 12:07:28;;;;;;;2.55;0.63;;;25.10;83.90;;;;;;5092867;28;20027;-61
2022/06/13 12:09:56;;;;;;;3.10;0.77;;;24.70;72.40;;;;;;5092774;28;20031;-60
2022/06/13 12:12:24;;;;;;;1.25;0.38;;;25.10;83.40;;;;;;5092687;28;20474;-60
2022/06/13 12:14:49;;;;;;;2.17;0.38;;;24.50;83.10;;;;;;5092703;28;20024;-61
2022/06/13 12:17:20;;;;;;;3.47;0.50;;;24.80;47.80;;;;;;5092728;28;20390;-58
2022/06/13 12:20:01;;;;;;;3.75;1.00;;;24.90;84.00;;;;;;5092639;28;20030;-60
2022/06/13 12:22:50;;;;;;;2.00;0.80;;;25.40;48.00;;;;;;5092822;28;20436;-59
2022/06/13 12:25:32;;;;;;;1.63;0.47;;;25.50;83.60;;;;;;5091649;28;20020;-59
2022/06/13 12:28:16;;;;;;;4.38;0.70;;;24.60;76.90;;;;;;5092514;28;20462;-59
2022/06/13 12:30:52;;;;;;;2.42;0.32;;;25.10;83.00;;;;;;5092416;28;20024;-59
2022/06/13 12:33:38;;;;;;;2.28;0.68;;;25.10;57.70;;;;;;5092541;28;20024;-59
2022/06/13 12:36:38;;;;;;;2.13;0.40;;;25.20;83.10;;;;;;5092807;28;20367;-59
2022/06/13 12:39:39;;;;;;;2.67;0.50;;;24.50;69.20;;;;;;5092233;28;20036;-59
2022/06/13 12:42:37;;;;;;;1.65;0.47;;;24.40;82.20;;;;;;5092393;28;20103;-59
2022/06/13 12:45:24;;;;;;;1.77;0.50;;;25.30;47.50;;;;;;5092334;28;20025;-59
2022/06/13 12:47:49;;;;;;;1.98;0.65;;;24.70;81.50;;;;;;5092263;28;20024;-59
2022/06/13 12:50:26;;;;;;;2.38;0.75;;;24.90;48.00;;;;;;5092164;28;20036;-60
2022/06/13 12:53:20;;;;;;;2.58;0.70;;;25.30;82.80;;;;;;5092200;28;20447;-60
2022/06/13 12:55:54;;;;;;;5.32;1.08;;;25.20;83.30;;;;;;5092254;28;20031;-60
2022/06/13 12:58:38;;;;;;;3.13;0.57;;;24.70;82.90;;;;;;5092096;28;20454;-59
2022/06/13 13:01:22;;;;;;;6.15;0.60;;;24.90;83.50;;;;;;5092111;28;20308;-62
2022/06/13 13:04:06;;;;;;;2.42;0.70;;;25.00;83.10;;;;;;5091979;28;20165;-60
2022/06/13 13:07:04;;;;;;;1.05;0.50;;;24.70;82.80;;;;;;5092199;28;20032;-60
2022/06/13 13:10:03;;;;;;;2.42;0.70;;;24.60;81.90;;;;;;5092107;28;20233;-60
2022/06/13 13:12:45;;;;;;;2.17;0.57;;;25.00;62.60;;;;;;5092192;28;20032;-60
2022/06/13 13:15:35;;;;;;;2.47;0.73;;;24.70;82.30;;;;;;5092379;28;20028;-60
2022/06/13 13:18:22;;;;;;;2.50;0.70;;;24.80;82.20;;;;;;5092006;28;20078;-60
2022/06/13 13:20:56;;;;;;;0.90;0.50;;;24.60;82.40;;;;;;5091970;28;20077;-60
2022/06/13 13:23:33;;;;;;;2.38;0.88;;;24.70;82.50;;;;;;5092028;28;20099;-60
2022/06/13 13:26:27;;;;;;;1.65;0.77;;;24.90;47.00;;;;;;5092173;28;20024;-60
2022/06/13 13:29:20;;;;;;;2.97;0.70;;;25.10;77.10;;;;;;5091941;28;20051;-60
2022/06/13 13:31:55;;;;;;;5.75;0.88;;;24.50;82.20;;;;;;5091777;28;20355;-60
2022/06/13 13:34:46;;;;;;;1.15;0.57;;;24.40;46.70;;;;;;5091866;28;20031;-60
2022/06/13 13:37:17;;;;;;;;;;;24.90;47.50;;;;;;5095340;28;20024;-60
2022/06/13 13:39:57;;;;;;;2.83;0.80;;;25.30;57.00;;;;;;5095398;28;19990;-60
2022/06/13 13:42:29;;;;;;;1.40;0.50;;;25.30;83.00;;;;;;5095435;28;20079;-60
2022/06/13 13:45:15;;;;;;;2.80;0.75;;;24.90;48.10;;;;;;5095304;28;20095;-60
2022/06/13 13:47:42;;;;;;;3.28;0.57;;;24.40;78.00;;;;;;5095440;28;20028;-60
2022/06/13 13:50:21;;;;;;;3.67;0.60;;;24.70;82.60;;;;;;5095669;28;20413;-60
2022/06/13 13:52:52;;;;;;;1.92;0.70;;;24.90;48.10;;;;;;5095430;28;20027;-60
2022/06/13 13:55:34;;;;;;;3.25;0.70;;;24.80;55.80;;;;;;5095371;28;20063;-60
2022/06/13 13:58:12;;;;;;;2.03;0.45;;;24.90;71.30;;;;;;5095113;28;20029;-59
2022/06/13 14:01:05;;;;;;;3.08;0.88;;;25.10;82.80;;;;;;5095341;28;20024;-60
2022/06/13 14:03:49;;;;;;;2.10;0.70;;;24.70;82.30;;;;;;5094980;28;20124;-60
2022/06/13 14:06:24;;;;;;;1.73;0.43;;;24.90;47.10;;;;;;5095148;28;20422;-60
2022/06/13 14:08:50;;;;;;;2.35;0.52;;;;;;;;;;5095113;28;20028;-59
2022/06/13 14:11:16;;;;;;;3.70;0.90;;;24.70;82.30;;;;;;5094807;28;20032;-59